sensor_id;sensor_type;location;lat;lon;timestamp;pressure;altitude;pressure_sealevel;temperature;humidity
56330;BME280;42236;48.058;10.632;2023-09-07T00:00:15;95091.03;;;14.44;83.03
56330;BME280;42236;48.058;10.632;2023-09-07T00:03:00;95091.38;;;14.42;83.11
56330;BME280;42236;48.058;10.632;2023-09-07T00:05:46;95088.59;;;14.39;83.11
56330;BME280;42236;48.058;10.632;2023-09-07T00:08:32;95097.53;;;14.39;82.98
56330;BME280;42236;48.058;10.632;2023-09-07T00:11:18;95092.03;;;14.36;82.86
56330;BME280;42236;48.058;10.632;2023-09-07T00:14:04;95092.91;;;14.24;83.78
56330;BME280;42236;48.058;10.632;2023-09-07T00:16:50;95091.34;;;14.07;84.59
56330;BME280;42236;48.058;10.632;2023-09-07T00:19:35;95092.94;;;13.92;85.32
56330;BME280;42236;48.058;10.632;2023-09-07T00:22:22;95086.47;;;13.81;85.54
56330;BME280;42236;48.058;10.632;2023-09-07T00:25:08;95086.78;;;13.79;85.92
56330;BME280;42236;48.058;10.632;2023-09-07T00:27:54;95091.88;;;13.81;85.11
56330;BME280;42236;48.058;10.632;2023-09-07T00:30:40;95093.25;;;13.75;85.81
56330;BME280;42236;48.058;10.632;2023-09-07T00:33:25;95091.63;;;13.70;85.85
56330;BME280;42236;48.058;10.632;2023-09-07T00:36:11;95094.16;;;13.63;86.01
56330;BME280;42236;48.058;10.632;2023-09-07T00:38:57;95090.88;;;13.57;86.16
56330;BME280;42236;48.058;10.632;2023-09-07T00:41:42;95095.00;;;13.51;86.76
56330;BME280;42236;48.058;10.632;2023-09-07T00:44:28;95096.03;;;13.47;87.43
56330;BME280;42236;48.058;10.632;2023-09-07T00:47:15;95095.16;;;13.42;87.30
56330;BME280;42236;48.058;10.632;2023-09-07T00:50:01;95093.50;;;13.38;87.11
56330;BME280;42236;48.058;10.632;2023-09-07T00:52:46;95098.91;;;13.38;86.77
56330;BME280;42236;48.058;10.632;2023-09-07T00:55:33;95098.03;;;13.34;87.19
56330;BME280;42236;48.058;10.632;2023-09-07T00:58:20;95105.72;;;13.32;87.02
56330;BME280;42236;48.058;10.632;2023-09-07T01:01:06;95096.13;;;13.34;86.57
56330;BME280;42236;48.058;10.632;2023-09-07T01:03:52;95095.75;;;13.36;86.33
56330;BME280;42236;48.058;10.632;2023-09-07T01:06:45;95087.28;;;13.37;86.73
56330;BME280;42236;48.058;10.632;2023-09-07T01:09:34;95087.53;;;13.32;86.44
56330;BME280;42236;48.058;10.632;2023-09-07T01:12:21;95090.59;;;13.31;86.34
56330;BME280;42236;48.058;10.632;2023-09-07T01:15:07;95087.88;;;13.31;86.61
56330;BME280;42236;48.058;10.632;2023-09-07T01:17:53;95087.88;;;13.31;86.29
56330;BME280;42236;48.058;10.632;2023-09-07T01:20:41;95077.03;;;13.31;86.26
56330;BME280;42236;48.058;10.632;2023-09-07T01:23:28;95076.25;;;13.30;86.48
56330;BME280;42236;48.058;10.632;2023-09-07T01:26:14;95071.63;;;13.31;86.19
56330;BME280;42236;48.058;10.632;2023-09-07T01:29:01;95070.94;;;13.34;85.67
56330;BME280;42236;48.058;10.632;2023-09-07T01:31:47;95068.66;;;13.36;84.99
56330;BME280;42236;48.058;10.632;2023-09-07T01:34:33;95071.16;;;13.29;85.05
56330;BME280;42236;48.058;10.632;2023-09-07T01:37:19;95070.53;;;13.19;84.78
56330;BME280;42236;48.058;10.632;2023-09-07T01:40:05;95068.66;;;13.08;85.14
56330;BME280;42236;48.058;10.632;2023-09-07T01:42:52;95063.84;;;13.01;85.70
56330;BME280;42236;48.058;10.632;2023-09-07T01:45:38;95062.28;;;13.00;86.08
56330;BME280;42236;48.058;10.632;2023-09-07T01:48:24;95066.44;;;12.97;85.95
56330;BME280;42236;48.058;10.632;2023-09-07T01:51:09;95064.53;;;12.98;86.33
56330;BME280;42236;48.058;10.632;2023-09-07T01:53:55;95054.38;;;12.95;86.19
56330;BME280;42236;48.058;10.632;2023-09-07T01:56:41;95063.63;;;12.94;86.14
56330;BME280;42236;48.058;10.632;2023-09-07T01:59:26;95057.78;;;12.92;86.35
56330;BME280;42236;48.058;10.632;2023-09-07T02:02:12;95061.97;;;12.89;86.16
56330;BME280;42236;48.058;10.632;2023-09-07T02:04:58;95061.88;;;12.86;86.19
56330;BME280;42236;48.058;10.632;2023-09-07T02:07:44;95053.97;;;12.80;86.98
56330;BME280;42236;48.058;10.632;2023-09-07T02:10:29;95059.22;;;12.73;87.84
56330;BME280;42236;48.058;10.632;2023-09-07T02:13:16;95059.09;;;12.70;87.22
56330;BME280;42236;48.058;10.632;2023-09-07T02:16:05;95061.47;;;12.71;87.82
56330;BME280;42236;48.058;10.632;2023-09-07T02:19:00;95059.44;;;12.68;88.50
56330;BME280;42236;48.058;10.632;2023-09-07T02:21:46;95055.06;;;12.64;88.00
56330;BME280;42236;48.058;10.632;2023-09-07T02:24:31;95054.25;;;12.63;87.53
56330;BME280;42236;48.058;10.632;2023-09-07T02:27:17;95062.03;;;12.65;87.56
56330;BME280;42236;48.058;10.632;2023-09-07T02:30:04;95059.66;;;12.63;87.85
56330;BME280;42236;48.058;10.632;2023-09-07T02:32:49;95058.09;;;12.62;87.54
56330;BME280;42236;48.058;10.632;2023-09-07T02:35:38;95054.16;;;12.59;88.30
56330;BME280;42236;48.058;10.632;2023-09-07T02:38:24;95057.22;;;12.58;87.74
56330;BME280;42236;48.058;10.632;2023-09-07T02:41:10;95058.34;;;12.57;87.82
56330;BME280;42236;48.058;10.632;2023-09-07T02:43:55;95061.84;;;12.57;87.85
56330;BME280;42236;48.058;10.632;2023-09-07T02:46:41;95057.13;;;12.54;88.10
56330;BME280;42236;48.058;10.632;2023-09-07T02:49:27;95066.34;;;12.53;87.84
56330;BME280;42236;48.058;10.632;2023-09-07T02:52:12;95063.19;;;12.51;87.93
56330;BME280;42236;48.058;10.632;2023-09-07T02:54:58;95062.97;;;12.44;89.36
56330;BME280;42236;48.058;10.632;2023-09-07T02:57:44;95068.31;;;12.41;90.19
56330;BME280;42236;48.058;10.632;2023-09-07T03:00:29;95062.44;;;12.38;88.95
56330;BME280;42236;48.058;10.632;2023-09-07T03:03:15;95069.78;;;12.38;88.70
56330;BME280;42236;48.058;10.632;2023-09-07T03:06:11;95067.84;;;12.38;89.78
56330;BME280;42236;48.058;10.632;2023-09-07T03:08:56;95067.84;;;12.38;88.75
56330;BME280;42236;48.058;10.632;2023-09-07T03:11:42;95056.25;;;12.38;88.30
56330;BME280;42236;48.058;10.632;2023-09-07T03:14:28;95064.25;;;12.34;88.11
56330;BME280;42236;48.058;10.632;2023-09-07T03:17:13;95066.84;;;12.31;88.33
56330;BME280;42236;48.058;10.632;2023-09-07T03:19:59;95062.91;;;12.28;88.18
56330;BME280;42236;48.058;10.632;2023-09-07T03:22:45;95056.72;;;12.28;88.60
56330;BME280;42236;48.058;10.632;2023-09-07T03:25:31;95065.50;;;12.25;89.37
56330;BME280;42236;48.058;10.632;2023-09-07T03:28:16;95072.38;;;12.22;89.49
56330;BME280;42236;48.058;10.632;2023-09-07T03:31:02;95071.59;;;12.22;89.02
56330;BME280;42236;48.058;10.632;2023-09-07T03:33:48;95075.06;;;12.22;89.36
56330;BME280;42236;48.058;10.632;2023-09-07T03:36:34;95070.81;;;12.21;89.12
56330;BME280;42236;48.058;10.632;2023-09-07T03:39:21;95071.91;;;12.20;89.50
56330;BME280;42236;48.058;10.632;2023-09-07T03:42:07;95076.91;;;12.18;90.07
56330;BME280;42236;48.058;10.632;2023-09-07T03:44:53;95071.50;;;12.18;90.09
56330;BME280;42236;48.058;10.632;2023-09-07T03:47:39;95072.28;;;12.19;90.14
56330;BME280;42236;48.058;10.632;2023-09-07T03:50:24;95071.50;;;12.18;90.29
56330;BME280;42236;48.058;10.632;2023-09-07T03:53:10;95072.97;;;12.15;90.87
56330;BME280;42236;48.058;10.632;2023-09-07T03:55:56;95072.16;;;12.15;90.47
56330;BME280;42236;48.058;10.632;2023-09-07T03:58:41;95071.72;;;12.13;90.26
56330;BME280;42236;48.058;10.632;2023-09-07T04:01:27;95068.56;;;12.11;90.46
56330;BME280;42236;48.058;10.632;2023-09-07T04:04:13;95065.88;;;12.11;90.00
56330;BME280;42236;48.058;10.632;2023-09-07T04:06:58;95076.69;;;12.11;89.86
56330;BME280;42236;48.058;10.632;2023-09-07T04:09:44;95082.75;;;12.08;90.16
56330;BME280;42236;48.058;10.632;2023-09-07T04:12:30;95079.63;;;12.06;89.98
56330;BME280;42236;48.058;10.632;2023-09-07T04:15:16;95072.53;;;12.01;90.45
56330;BME280;42236;48.058;10.632;2023-09-07T04:18:02;95071.59;;;11.97;91.35
56330;BME280;42236;48.058;10.632;2023-09-07T04:20:48;95075.31;;;11.92;91.50
56330;BME280;42236;48.058;10.632;2023-09-07T04:23:33;95076.78;;;11.90;91.62
56330;BME280;42236;48.058;10.632;2023-09-07T04:26:24;95072.84;;;11.87;91.29
56330;BME280;42236;48.058;10.632;2023-09-07T04:29:09;95077.78;;;11.85;91.71
56330;BME280;42236;48.058;10.632;2023-09-07T04:31:57;95080.00;;;11.83;91.66
56330;BME280;42236;48.058;10.632;2023-09-07T04:34:42;95085.41;;;11.83;91.87
56330;BME280;42236;48.058;10.632;2023-09-07T04:37:28;95085.78;;;11.82;92.67
56330;BME280;42236;48.058;10.632;2023-09-07T04:40:14;95091.97;;;11.82;91.89
56330;BME280;42236;48.058;10.632;2023-09-07T04:42:59;95091.97;;;11.82;91.47
56330;BME280;42236;48.058;10.632;2023-09-07T04:45:46;95089.72;;;11.84;91.46
56330;BME280;42236;48.058;10.632;2023-09-07T04:48:33;95095.78;;;11.81;92.28
56330;BME280;42236;48.058;10.632;2023-09-07T04:51:19;95089.59;;;11.81;91.93
56330;BME280;42236;48.058;10.632;2023-09-07T04:54:06;95096.91;;;11.80;92.56
56330;BME280;42236;48.058;10.632;2023-09-07T04:56:51;95089.13;;;11.79;91.87
56330;BME280;42236;48.058;10.632;2023-09-07T04:59:37;95090.38;;;11.81;91.60
56330;BME280;42236;48.058;10.632;2023-09-07T05:02:23;95090.81;;;11.83;91.52
56330;BME280;42236;48.058;10.632;2023-09-07T05:05:08;95089.72;;;11.84;91.30
56330;BME280;42236;48.058;10.632;2023-09-07T05:07:54;95095.91;;;11.85;91.35
56330;BME280;42236;48.058;10.632;2023-09-07T05:10:40;95093.69;;;11.87;92.32
56330;BME280;42236;48.058;10.632;2023-09-07T05:13:26;95088.06;;;11.92;94.34
56330;BME280;42236;48.058;10.632;2023-09-07T05:16:12;95091.09;;;12.03;94.15
56330;BME280;42236;48.058;10.632;2023-09-07T05:18:58;95087.97;;;12.13;93.49
56330;BME280;42236;48.058;10.632;2023-09-07T05:21:44;95096.72;;;12.22;92.70
56330;BME280;42236;48.058;10.632;2023-09-07T05:24:29;95097.97;;;12.25;92.72
56330;BME280;42236;48.058;10.632;2023-09-07T05:27:15;95104.38;;;12.20;93.46
56330;BME280;42236;48.058;10.632;2023-09-07T05:30:02;95105.97;;;12.21;93.19
56330;BME280;42236;48.058;10.632;2023-09-07T05:32:47;95105.53;;;12.19;94.37
56330;BME280;42236;48.058;10.632;2023-09-07T05:35:33;95103.28;;;12.21;93.41
56330;BME280;42236;48.058;10.632;2023-09-07T05:38:20;95097.84;;;12.21;94.77
56330;BME280;42236;48.058;10.632;2023-09-07T05:41:06;95111.38;;;12.21;95.63
56330;BME280;42236;48.058;10.632;2023-09-07T05:43:52;95107.31;;;12.27;94.65
56330;BME280;42236;48.058;10.632;2023-09-07T05:46:38;95103.59;;;12.32;94.82
56330;BME280;42236;48.058;10.632;2023-09-07T05:49:24;95104.63;;;12.40;93.91
56330;BME280;42236;48.058;10.632;2023-09-07T05:52:10;95103.25;;;12.46;95.21
56330;BME280;42236;48.058;10.632;2023-09-07T05:54:55;95113.13;;;12.54;95.42
56330;BME280;42236;48.058;10.632;2023-09-07T05:57:41;95099.94;;;12.65;94.66
56330;BME280;42236;48.058;10.632;2023-09-07T06:00:26;95104.09;;;12.74;93.95
56330;BME280;42236;48.058;10.632;2023-09-07T06:03:12;95102.91;;;12.88;94.12
56330;BME280;42236;48.058;10.632;2023-09-07T06:05:58;95100.41;;;12.95;95.15
56330;BME280;42236;48.058;10.632;2023-09-07T06:08:43;95100.28;;;13.03;95.08
56330;BME280;42236;48.058;10.632;2023-09-07T06:11:29;95095.84;;;13.11;95.06
56330;BME280;42236;48.058;10.632;2023-09-07T06:14:17;95109.25;;;13.20;94.53
56330;BME280;42236;48.058;10.632;2023-09-07T06:17:02;95105.28;;;13.30;94.66
56330;BME280;42236;48.058;10.632;2023-09-07T06:19:48;95102.06;;;13.40;93.94
56330;BME280;42236;48.058;10.632;2023-09-07T06:22:34;95104.25;;;13.50;93.57
56330;BME280;42236;48.058;10.632;2023-09-07T06:25:19;95107.59;;;13.59;93.82
56330;BME280;42236;48.058;10.632;2023-09-07T06:28:07;95105.53;;;13.69;93.62
56330;BME280;42236;48.058;10.632;2023-09-07T06:30:53;95101.94;;;13.80;93.18
56330;BME280;42236;48.058;10.632;2023-09-07T06:33:38;95107.63;;;13.91;93.09
56330;BME280;42236;48.058;10.632;2023-09-07T06:36:24;95104.41;;;14.01;92.97
56330;BME280;42236;48.058;10.632;2023-09-07T06:39:09;95103.88;;;14.12;94.86
56330;BME280;42236;48.058;10.632;2023-09-07T06:41:55;95103.00;;;14.23;94.02
56330;BME280;42236;48.058;10.632;2023-09-07T06:44:41;95106.38;;;14.36;93.97
56330;BME280;42236;48.058;10.632;2023-09-07T06:47:26;95110.13;;;14.47;93.49
56330;BME280;42236;48.058;10.632;2023-09-07T06:50:12;95100.75;;;14.61;93.34
56330;BME280;42236;48.058;10.632;2023-09-07T06:52:57;95108.78;;;14.73;92.72
56330;BME280;42236;48.058;10.632;2023-09-07T06:55:43;95097.00;;;14.85;92.79
56330;BME280;42236;48.058;10.632;2023-09-07T06:58:29;95105.00;;;14.97;92.67
56330;BME280;42236;48.058;10.632;2023-09-07T07:01:15;95102.16;;;15.09;92.42
56330;BME280;42236;48.058;10.632;2023-09-07T07:04:00;95105.88;;;15.21;92.30
56330;BME280;42236;48.058;10.632;2023-09-07T07:06:46;95104.94;;;15.32;92.52
56330;BME280;42236;48.058;10.632;2023-09-07T07:09:35;95112.22;;;15.48;92.17
56330;BME280;42236;48.058;10.632;2023-09-07T07:12:22;95115.19;;;15.62;91.29
56330;BME280;42236;48.058;10.632;2023-09-07T07:15:08;95121.28;;;15.75;91.41
56330;BME280;42236;48.058;10.632;2023-09-07T07:17:53;95117.59;;;15.87;91.43
56330;BME280;42236;48.058;10.632;2023-09-07T07:20:41;95122.88;;;15.99;91.55
56330;BME280;42236;48.058;10.632;2023-09-07T07:23:27;95123.50;;;16.12;91.00
56330;BME280;42236;48.058;10.632;2023-09-07T07:26:12;95133.81;;;16.26;90.16
56330;BME280;42236;48.058;10.632;2023-09-07T07:28:58;95124.28;;;16.39;90.21
56330;BME280;42236;48.058;10.632;2023-09-07T07:31:44;95120.59;;;16.51;89.78
56330;BME280;42236;48.058;10.632;2023-09-07T07:34:30;95125.88;;;16.67;89.86
56330;BME280;42236;48.058;10.632;2023-09-07T07:37:15;95137.84;;;16.85;89.37
56330;BME280;42236;48.058;10.632;2023-09-07T07:40:01;95137.19;;;16.95;88.67
56330;BME280;42236;48.058;10.632;2023-09-07T07:42:47;95133.47;;;17.07;88.83
56330;BME280;42236;48.058;10.632;2023-09-07T07:45:33;95139.78;;;17.15;89.01
56330;BME280;42236;48.058;10.632;2023-09-07T07:48:23;95134.44;;;17.22;88.92
56330;BME280;42236;48.058;10.632;2023-09-07T07:51:09;95137.25;;;17.29;88.89
56330;BME280;42236;48.058;10.632;2023-09-07T07:53:55;95141.25;;;17.39;88.62
56330;BME280;42236;48.058;10.632;2023-09-07T07:56:41;95146.44;;;17.47;88.54
56330;BME280;42236;48.058;10.632;2023-09-07T07:59:27;95138.41;;;17.62;87.81
56330;BME280;42236;48.058;10.632;2023-09-07T08:02:13;95140.03;;;17.70;87.71
56330;BME280;42236;48.058;10.632;2023-09-07T08:04:58;95138.16;;;17.78;87.61
56330;BME280;42236;48.058;10.632;2023-09-07T08:07:44;95140.66;;;17.90;87.56
56330;BME280;42236;48.058;10.632;2023-09-07T08:10:33;95136.84;;;17.98;88.11
56330;BME280;42236;48.058;10.632;2023-09-07T08:13:19;95129.88;;;18.01;87.18
56330;BME280;42236;48.058;10.632;2023-09-07T08:16:05;95134.97;;;18.06;87.40
56330;BME280;42236;48.058;10.632;2023-09-07T08:18:51;95137.34;;;18.11;87.40
56330;BME280;42236;48.058;10.632;2023-09-07T08:21:37;95140.16;;;18.18;86.65
56330;BME280;42236;48.058;10.632;2023-09-07T08:24:23;95137.44;;;18.22;86.84
56330;BME280;42236;48.058;10.632;2023-09-07T08:27:08;95141.03;;;18.29;86.99
56330;BME280;42236;48.058;10.632;2023-09-07T08:30:03;95139.56;;;18.43;86.46
56330;BME280;42236;48.058;10.632;2023-09-07T08:32:51;95141.22;;;18.51;86.25
56330;BME280;42236;48.058;10.632;2023-09-07T08:35:37;95131.94;;;18.66;86.07
56330;BME280;42236;48.058;10.632;2023-09-07T08:38:29;95139.44;;;18.76;86.35
56330;BME280;42236;48.058;10.632;2023-09-07T08:41:16;95133.63;;;18.82;85.87
56330;BME280;42236;48.058;10.632;2023-09-07T08:44:01;95126.66;;;18.88;85.89
56330;BME280;42236;48.058;10.632;2023-09-07T08:46:49;95125.91;;;18.98;85.82
56330;BME280;42236;48.058;10.632;2023-09-07T08:49:35;95122.84;;;19.10;85.60
56330;BME280;42236;48.058;10.632;2023-09-07T08:52:21;95122.09;;;19.21;85.17
56330;BME280;42236;48.058;10.632;2023-09-07T08:55:07;95119.03;;;19.26;85.34
56330;BME280;42236;48.058;10.632;2023-09-07T08:57:53;95125.28;;;19.30;85.24
56330;BME280;42236;48.058;10.632;2023-09-07T09:00:39;95125.31;;;19.37;85.34
56330;BME280;42236;48.058;10.632;2023-09-07T09:03:28;95121.81;;;19.47;85.46
56330;BME280;42236;48.058;10.632;2023-09-07T09:06:20;95122.63;;;19.51;85.41
56330;BME280;42236;48.058;10.632;2023-09-07T09:09:05;95130.09;;;19.61;85.19
56330;BME280;42236;48.058;10.632;2023-09-07T09:11:52;95130.16;;;19.76;84.58
56330;BME280;42236;48.058;10.632;2023-09-07T09:14:41;95132.53;;;19.88;84.75
56330;BME280;42236;48.058;10.632;2023-09-07T09:17:27;95127.84;;;19.92;84.18
56330;BME280;42236;48.058;10.632;2023-09-07T09:20:23;95139.22;;;20.05;83.89
56330;BME280;42236;48.058;10.632;2023-09-07T09:23:09;95133.38;;;20.14;83.47
56330;BME280;42236;48.058;10.632;2023-09-07T09:25:57;95126.34;;;20.20;83.08
56330;BME280;42236;48.058;10.632;2023-09-07T09:28:43;95133.75;;;20.23;83.19
56330;BME280;42236;48.058;10.632;2023-09-07T09:31:30;95121.63;;;20.35;83.34
56330;BME280;42236;48.058;10.632;2023-09-07T09:34:17;95123.22;;;20.46;83.00
56330;BME280;42236;48.058;10.632;2023-09-07T09:37:03;95134.56;;;20.52;82.64
56330;BME280;42236;48.058;10.632;2023-09-07T09:39:50;95122.44;;;20.64;82.65
56330;BME280;42236;48.058;10.632;2023-09-07T09:42:36;95124.75;;;20.73;82.22
56330;BME280;42236;48.058;10.632;2023-09-07T09:45:26;95118.88;;;20.81;82.31
56330;BME280;42236;48.058;10.632;2023-09-07T09:48:13;95128.25;;;20.87;81.48
56330;BME280;42236;48.058;10.632;2023-09-07T09:50:59;95120.81;;;20.92;81.71
56330;BME280;42236;48.058;10.632;2023-09-07T09:53:45;95118.06;;;20.99;81.12
56330;BME280;42236;48.058;10.632;2023-09-07T09:56:30;95124.31;;;21.10;81.19
56330;BME280;42236;48.058;10.632;2023-09-07T09:59:16;95122.28;;;21.21;80.88
56330;BME280;42236;48.058;10.632;2023-09-07T10:02:02;95118.78;;;21.24;80.66
56330;BME280;42236;48.058;10.632;2023-09-07T10:04:49;95114.44;;;21.27;80.99
56330;BME280;42236;48.058;10.632;2023-09-07T10:07:48;95108.53;;;21.36;80.39
56330;BME280;42236;48.058;10.632;2023-09-07T10:10:36;95108.47;;;21.50;80.10
56330;BME280;42236;48.058;10.632;2023-09-07T10:13:29;95102.53;;;21.62;80.03
56330;BME280;42236;48.058;10.632;2023-09-07T10:16:16;95101.34;;;21.70;79.77
56330;BME280;42236;48.058;10.632;2023-09-07T10:19:01;95110.31;;;21.78;78.90
56330;BME280;42236;48.058;10.632;2023-09-07T10:21:48;95104.03;;;21.78;79.03
56330;BME280;42236;48.058;10.632;2023-09-07T10:24:34;95102.03;;;21.82;79.10
56330;BME280;42236;48.058;10.632;2023-09-07T10:27:25;95098.47;;;21.88;78.64
56330;BME280;42236;48.058;10.632;2023-09-07T10:30:11;95093.34;;;21.94;78.28
56330;BME280;42236;48.058;10.632;2023-09-07T10:32:58;95096.47;;;21.96;78.07
56330;BME280;42236;48.058;10.632;2023-09-07T10:35:44;95096.00;;;22.05;78.34
56330;BME280;42236;48.058;10.632;2023-09-07T10:38:36;95098.66;;;22.15;77.82
56330;BME280;42236;48.058;10.632;2023-09-07T10:41:22;95091.19;;;22.20;77.83
56330;BME280;42236;48.058;10.632;2023-09-07T10:44:08;95097.88;;;22.26;77.53
56330;BME280;42236;48.058;10.632;2023-09-07T10:46:59;95097.44;;;22.31;77.55
56330;BME280;42236;48.058;10.632;2023-09-07T10:49:45;95091.88;;;22.38;77.75
56330;BME280;42236;48.058;10.632;2023-09-07T10:52:33;95095.28;;;22.49;77.22
56330;BME280;42236;48.058;10.632;2023-09-07T10:55:19;95091.25;;;22.65;76.53
56330;BME280;42236;48.058;10.632;2023-09-07T10:58:05;95091.56;;;22.70;76.70
56330;BME280;42236;48.058;10.632;2023-09-07T11:00:52;95089.16;;;22.76;76.41
56330;BME280;42236;48.058;10.632;2023-09-07T11:03:38;95089.53;;;22.78;76.03
56330;BME280;42236;48.058;10.632;2023-09-07T11:06:24;95079.28;;;22.82;75.85
56330;BME280;42236;48.058;10.632;2023-09-07T11:09:10;95072.56;;;22.87;75.58
56330;BME280;42236;48.058;10.632;2023-09-07T11:11:56;95074.81;;;22.95;75.19
56330;BME280;42236;48.058;10.632;2023-09-07T11:14:41;95073.19;;;23.02;76.05
56330;BME280;42236;48.058;10.632;2023-09-07T11:17:27;95064.88;;;23.09;75.13
56330;BME280;42236;48.058;10.632;2023-09-07T11:20:13;95070.66;;;23.18;74.97
56330;BME280;42236;48.058;10.632;2023-09-07T11:22:59;95077.63;;;23.26;73.93
56330;BME280;42236;48.058;10.632;2023-09-07T11:25:49;95071.28;;;23.29;73.67
56330;BME280;42236;48.058;10.632;2023-09-07T11:28:35;95068.13;;;23.31;73.85
56330;BME280;42236;48.058;10.632;2023-09-07T11:31:20;95065.75;;;23.33;73.47
56330;BME280;42236;48.058;10.632;2023-09-07T11:34:11;95062.09;;;23.43;73.40
56330;BME280;42236;48.058;10.632;2023-09-07T11:36:57;95063.19;;;23.49;73.46
56330;BME280;42236;48.058;10.632;2023-09-07T11:39:43;95070.53;;;23.59;73.05
56330;BME280;42236;48.058;10.632;2023-09-07T11:42:29;95070.47;;;23.63;72.16
56330;BME280;42236;48.058;10.632;2023-09-07T11:45:15;95071.94;;;23.71;72.10
56330;BME280;42236;48.058;10.632;2023-09-07T11:48:01;95073.06;;;23.77;71.55
56330;BME280;42236;48.058;10.632;2023-09-07T11:50:47;95067.09;;;23.82;70.91
56330;BME280;42236;48.058;10.632;2023-09-07T11:53:33;95067.88;;;23.83;70.29
56330;BME280;42236;48.058;10.632;2023-09-07T11:56:18;95071.41;;;23.83;70.61
56330;BME280;42236;48.058;10.632;2023-09-07T11:59:04;95073.66;;;23.92;70.39
56330;BME280;42236;48.058;10.632;2023-09-07T12:01:50;95079.84;;;24.00;69.96
56330;BME280;42236;48.058;10.632;2023-09-07T12:04:35;95074.56;;;24.09;70.30
56330;BME280;42236;48.058;10.632;2023-09-07T12:07:23;95069.38;;;24.15;69.21
56330;BME280;42236;48.058;10.632;2023-09-07T12:10:08;95075.16;;;24.20;69.35
56330;BME280;42236;48.058;10.632;2023-09-07T12:12:55;95064.50;;;24.22;68.76
56330;BME280;42236;48.058;10.632;2023-09-07T12:15:41;95070.38;;;24.24;68.49
56330;BME280;42236;48.058;10.632;2023-09-07T12:18:27;95068.00;;;24.26;67.83
56330;BME280;42236;48.058;10.632;2023-09-07T12:21:13;95074.69;;;24.25;66.89
56330;BME280;42236;48.058;10.632;2023-09-07T12:23:58;95060.44;;;24.31;66.78
56330;BME280;42236;48.058;10.632;2023-09-07T12:26:44;95059.53;;;24.37;66.41
56330;BME280;42236;48.058;10.632;2023-09-07T12:29:29;95055.88;;;24.44;66.59
56330;BME280;42236;48.058;10.632;2023-09-07T12:32:15;95059.41;;;24.48;66.46
56330;BME280;42236;48.058;10.632;2023-09-07T12:35:01;95054.59;;;24.52;66.00
56330;BME280;42236;48.058;10.632;2023-09-07T12:37:47;95054.16;;;24.54;65.51
56330;BME280;42236;48.058;10.632;2023-09-07T12:40:32;95050.28;;;24.51;64.82
56330;BME280;42236;48.058;10.632;2023-09-07T12:43:18;95054.94;;;24.54;65.15
56330;BME280;42236;48.058;10.632;2023-09-07T12:46:04;95048.53;;;24.61;64.89
56330;BME280;42236;48.058;10.632;2023-09-07T12:48:50;95047.28;;;24.65;64.81
56330;BME280;42236;48.058;10.632;2023-09-07T12:51:35;95052.78;;;24.65;63.66
56330;BME280;42236;48.058;10.632;2023-09-07T12:54:21;95049.31;;;24.61;63.26
56330;BME280;42236;48.058;10.632;2023-09-07T12:57:07;95049.66;;;24.63;63.59
56330;BME280;42236;48.058;10.632;2023-09-07T12:59:52;95054.66;;;24.72;63.42
56330;BME280;42236;48.058;10.632;2023-09-07T13:02:38;95055.28;;;24.80;62.35
56330;BME280;42236;48.058;10.632;2023-09-07T13:05:24;95050.94;;;24.79;62.54
56330;BME280;42236;48.058;10.632;2023-09-07T13:08:10;95050.94;;;24.79;61.99
56330;BME280;42236;48.058;10.632;2023-09-07T13:10:56;95053.72;;;24.79;62.05
56330;BME280;42236;48.058;10.632;2023-09-07T13:13:42;95057.19;;;24.83;61.98
56330;BME280;42236;48.058;10.632;2023-09-07T13:16:28;95046.09;;;24.86;61.64
56330;BME280;42236;48.058;10.632;2023-09-07T13:19:14;95039.09;;;24.82;60.97
56330;BME280;42236;48.058;10.632;2023-09-07T13:21:59;95038.66;;;24.83;61.02
56330;BME280;42236;48.058;10.632;2023-09-07T13:24:45;95048.78;;;24.90;61.09
56330;BME280;42236;48.058;10.632;2023-09-07T13:27:31;95041.34;;;24.87;60.55
56330;BME280;42236;48.058;10.632;2023-09-07T13:30:17;95042.50;;;24.89;60.48
56330;BME280;42236;48.058;10.632;2023-09-07T13:33:02;95033.44;;;24.89;60.66
56330;BME280;42236;48.058;10.632;2023-09-07T13:35:48;95034.06;;;24.97;60.08
56330;BME280;42236;48.058;10.632;2023-09-07T13:38:34;95034.00;;;25.00;59.82
56330;BME280;42236;48.058;10.632;2023-09-07T13:41:19;95032.34;;;25.03;59.76
56330;BME280;42236;48.058;10.632;2023-09-07T13:44:05;95028.81;;;25.02;60.12
56330;BME280;42236;48.058;10.632;2023-09-07T13:46:51;95026.91;;;24.99;60.16
56330;BME280;42236;48.058;10.632;2023-09-07T13:49:38;95025.34;;;24.98;59.88
56330;BME280;42236;48.058;10.632;2023-09-07T13:52:25;95025.28;;;25.02;59.92
56330;BME280;42236;48.058;10.632;2023-09-07T13:55:11;95025.91;;;25.09;59.70
56330;BME280;42236;48.058;10.632;2023-09-07T13:57:57;95022.53;;;25.02;59.13
56330;BME280;42236;48.058;10.632;2023-09-07T14:00:42;95018.91;;;25.05;60.01
56330;BME280;42236;48.058;10.632;2023-09-07T14:03:28;95022.81;;;25.07;59.40
56330;BME280;42236;48.058;10.632;2023-09-07T14:06:14;95022.03;;;25.07;59.86
56330;BME280;42236;48.058;10.632;2023-09-07T14:08:59;95015.66;;;25.10;59.75
56330;BME280;42236;48.058;10.632;2023-09-07T14:11:45;95021.25;;;25.06;59.11
56330;BME280;42236;48.058;10.632;2023-09-07T14:14:30;95020.53;;;25.02;59.36
56330;BME280;42236;48.058;10.632;2023-09-07T14:17:16;95025.22;;;25.05;59.31
56330;BME280;42236;48.058;10.632;2023-09-07T14:20:02;95024.72;;;25.10;58.99
56330;BME280;42236;48.058;10.632;2023-09-07T14:22:47;95025.91;;;25.09;59.01
56330;BME280;42236;48.058;10.632;2023-09-07T14:25:33;95027.41;;;25.14;59.12
56330;BME280;42236;48.058;10.632;2023-09-07T14:28:19;95032.03;;;25.21;58.89